createdAt,value
2017-12-11T00:00:00.317Z,4.70
2017-12-11T00:02:27.835Z,6.50
2017-12-11T00:04:55.365Z,5.22
2017-12-11T00:07:23.613Z,4.90
2017-12-11T00:09:51.123Z,5.97
2017-12-11T00:12:18.600Z,8.10
2017-12-11T00:14:46.096Z,8.48
2017-12-11T00:17:13.611Z,6.82
2017-12-11T00:19:41.108Z,6.30
2017-12-11T00:22:08.604Z,8.55
2017-12-11T00:24:36.106Z,5.75
2017-12-11T00:27:03.598Z,10.07
2017-12-11T00:29:31.888Z,11.95
2017-12-11T00:32:00.157Z,15.25
2017-12-11T00:34:28.420Z,15.00
2017-12-11T00:36:55.922Z,5.45
2017-12-11T00:39:23.419Z,6.45
2017-12-11T00:41:50.907Z,5.35
2017-12-11T00:44:19.181Z,4.82
2017-12-11T00:46:47.427Z,8.05
2017-12-11T00:49:14.913Z,5.57
2017-12-11T00:51:43.163Z,6.15
2017-12-11T00:54:10.745Z,5.47
2017-12-11T00:56:38.993Z,5.37
2017-12-11T00:59:06.487Z,6.50
2017-12-11T01:01:34.757Z,10.80
2017-12-11T01:04:03.002Z,5.12
2017-12-11T01:06:30.487Z,6.03
2017-12-11T01:08:58.795Z,7.85
2017-12-11T01:11:26.292Z,7.40
2017-12-11T01:13:55.320Z,8.00
2017-12-11T01:16:23.623Z,6.00
2017-12-11T01:18:51.111Z,8.93
2017-12-11T01:21:18.648Z,8.65
2017-12-11T01:23:46.139Z,9.57
2017-12-11T01:26:13.841Z,9.40
2017-12-11T01:28:41.380Z,11.73
2017-12-11T01:31:09.649Z,12.55
2017-12-11T01:33:37.135Z,9.48
2017-12-11T01:36:04.629Z,10.50
2017-12-11T01:38:32.105Z,9.98
2017-12-11T01:40:59.621Z,17.17
2017-12-11T01:43:27.114Z,13.65
2017-12-11T01:45:54.641Z,17.85
2017-12-11T01:48:22.173Z,15.65
2017-12-11T01:50:50.430Z,14.48
2017-12-11T01:53:17.942Z,16.20
2017-12-11T01:55:45.480Z,17.65
2017-12-11T01:58:12.983Z,20.98
2017-12-11T02:00:40.504Z,13.00
2017-12-11T02:03:07.990Z,14.52
2017-12-11T02:05:35.514Z,18.65
2017-12-11T02:08:03.021Z,16.67
2017-12-11T02:10:32.064Z,17.65
2017-12-11T02:12:59.630Z,24.92
2017-12-11T02:15:27.129Z,20.75
2017-12-11T02:17:54.652Z,17.15
2017-12-11T02:20:22.182Z,19.95
2017-12-11T02:22:49.767Z,15.48
2017-12-11T02:25:17.308Z,19.73
2017-12-11T02:27:44.807Z,17.25
2017-12-11T02:30:12.299Z,21.85
2017-12-11T02:32:39.812Z,18.12
2017-12-11T02:35:07.309Z,16.42
2017-12-11T02:37:34.827Z,16.15
2017-12-11T02:40:02.331Z,16.90
2017-12-11T02:42:29.843Z,19.77
2017-12-11T02:44:57.349Z,19.77
2017-12-11T02:47:24.848Z,19.70
2017-12-11T02:49:52.390Z,23.17
2017-12-11T02:52:19.869Z,13.32
2017-12-11T02:54:47.365Z,15.63
2017-12-11T02:57:14.864Z,12.18
2017-12-11T02:59:42.371Z,9.50
2017-12-11T03:02:09.868Z,11.75
2017-12-11T03:04:38.141Z,13.68
2017-12-11T03:07:06.385Z,12.07
2017-12-11T03:09:33.866Z,9.27
2017-12-11T03:12:02.141Z,10.88
2017-12-11T03:14:30.416Z,13.30
2017-12-11T03:16:58.680Z,14.65
2017-12-11T03:19:26.190Z,12.40
2017-12-11T03:21:53.672Z,9.85
2017-12-11T03:24:21.183Z,14.73
2017-12-11T03:26:48.688Z,13.38
2017-12-11T03:29:16.190Z,10.02
2017-12-11T03:31:44.433Z,10.57
2017-12-11T03:34:11.929Z,10.57
2017-12-11T03:36:40.237Z,11.60
2017-12-11T03:39:07.735Z,8.70
2017-12-11T03:41:36.751Z,11.07
2017-12-11T03:44:05.054Z,7.12
2017-12-11T03:46:32.613Z,10.88
2017-12-11T03:49:00.146Z,9.10
2017-12-11T03:51:28.404Z,9.45
2017-12-11T03:53:56.672Z,8.57
2017-12-11T03:56:24.179Z,8.77
2017-12-11T03:58:51.731Z,11.38
2017-12-11T04:01:19.237Z,8.27
2017-12-11T04:03:46.758Z,8.35
2017-12-11T04:06:14.242Z,12.00
2017-12-11T04:08:41.730Z,15.65
2017-12-11T04:11:10.046Z,14.00
2017-12-11T04:13:37.542Z,13.90
2017-12-11T04:16:05.026Z,14.43
2017-12-11T04:18:32.554Z,16.12
2017-12-11T04:21:00.089Z,17.42
2017-12-11T04:23:27.610Z,11.98
2017-12-11T04:25:55.887Z,19.65
2017-12-11T04:28:24.133Z,15.98
2017-12-11T04:30:51.643Z,15.80
2017-12-11T04:33:19.140Z,15.85
2017-12-11T04:35:46.643Z,13.95
2017-12-11T04:38:14.167Z,13.45
2017-12-11T04:40:41.663Z,14.32
2017-12-11T04:43:09.167Z,16.83
2017-12-11T04:45:36.692Z,14.15
2017-12-11T04:48:04.177Z,15.90
2017-12-11T04:50:31.657Z,15.30
2017-12-11T04:52:59.179Z,18.77
2017-12-11T04:55:26.679Z,22.73
2017-12-11T04:57:54.171Z,25.48
2017-12-11T05:00:21.669Z,23.65
2017-12-11T05:02:49.166Z,23.02
2017-12-11T05:05:17.437Z,24.98
2017-12-11T05:07:45.689Z,20.73
2017-12-11T05:10:13.298Z,22.15
2017-12-11T05:12:40.804Z,21.80
2017-12-11T05:15:08.324Z,20.40
2017-12-11T05:17:35.834Z,23.83
2017-12-11T05:20:03.325Z,22.40
2017-12-11T05:22:30.843Z,24.70
2017-12-11T05:24:58.341Z,22.30
2017-12-11T05:27:25.829Z,23.98
2017-12-11T05:29:53.359Z,22.65
2017-12-11T05:32:20.841Z,24.50
2017-12-11T05:34:48.366Z,22.17
2017-12-11T05:37:15.856Z,24.10
2017-12-11T05:39:43.346Z,25.10
2017-12-11T05:42:10.884Z,27.33
2017-12-11T05:44:38.393Z,27.02
2017-12-11T05:47:06.664Z,26.87
2017-12-11T05:49:35.064Z,25.35
2017-12-11T05:52:02.564Z,30.92
2017-12-11T05:54:30.092Z,26.00
2017-12-11T05:56:57.591Z,27.25
2017-12-11T05:59:25.156Z,30.12
2017-12-11T06:01:52.670Z,30.70
2017-12-11T06:04:20.193Z,31.60
2017-12-11T06:06:48.498Z,32.97
2017-12-11T06:09:16.040Z,30.35
2017-12-11T06:11:43.548Z,31.15
2017-12-11T06:14:11.072Z,26.48
2017-12-11T06:16:38.557Z,27.40
2017-12-11T06:19:06.078Z,31.30
2017-12-11T06:21:33.581Z,33.72
2017-12-11T06:24:01.062Z,32.28
2017-12-11T06:26:28.545Z,36.88
2017-12-11T06:28:56.094Z,34.95
2017-12-11T06:31:24.397Z,27.62
2017-12-11T06:33:51.896Z,27.45
2017-12-11T06:36:19.515Z,31.92
2017-12-11T06:38:47.010Z,37.60
2017-12-11T06:41:14.532Z,32.95
2017-12-11T06:43:42.060Z,34.50
2017-12-11T06:46:10.349Z,34.78
2017-12-11T06:48:37.860Z,35.60
2017-12-11T06:51:05.367Z,34.20
2017-12-11T06:53:32.878Z,33.15
2017-12-11T06:56:00.384Z,44.95
2017-12-11T06:58:27.869Z,38.63
2017-12-11T07:00:55.383Z,50.88
2017-12-11T07:03:23.684Z,41.05
2017-12-11T07:05:51.211Z,40.28
2017-12-11T07:08:18.716Z,39.03
2017-12-11T07:10:46.215Z,36.90
2017-12-11T07:13:13.744Z,37.90
2017-12-11T07:15:41.263Z,40.85
2017-12-11T07:18:09.522Z,40.92
2017-12-11T07:20:37.038Z,37.65
2017-12-11T07:23:04.540Z,40.97
2017-12-11T07:25:32.054Z,39.35
2017-12-11T07:27:59.577Z,36.90
2017-12-11T07:30:27.076Z,54.28
2017-12-11T07:32:54.609Z,59.38
2017-12-11T07:35:22.106Z,71.03
2017-12-11T07:37:49.589Z,84.60
2017-12-11T07:40:17.884Z,42.55
2017-12-11T07:42:45.408Z,40.35
2017-12-11T07:45:12.907Z,40.08
2017-12-11T07:47:40.428Z,38.13
2017-12-11T07:50:07.909Z,43.00
2017-12-11T07:52:36.204Z,38.83
2017-12-11T07:55:03.690Z,39.83
2017-12-11T07:57:31.192Z,41.22
2017-12-11T07:59:59.466Z,39.63
2017-12-11T08:02:27.731Z,35.00
2017-12-11T08:04:55.257Z,39.90
2017-12-11T08:07:22.776Z,38.53
2017-12-11T08:09:50.337Z,39.08
2017-12-11T08:12:17.846Z,38.17
2017-12-11T08:14:45.334Z,35.15
2017-12-11T08:17:13.608Z,37.55
2017-12-11T08:19:41.891Z,37.67
2017-12-11T08:22:10.164Z,36.38
2017-12-11T08:24:38.477Z,36.00
2017-12-11T08:27:05.966Z,40.85
2017-12-11T08:29:33.484Z,40.75
2017-12-11T08:32:01.022Z,39.50
2017-12-11T08:34:29.293Z,38.42
2017-12-11T08:36:57.861Z,37.55
2017-12-11T08:39:25.392Z,31.55
2017-12-11T08:41:52.881Z,39.58
2017-12-11T08:44:20.409Z,42.50
2017-12-11T08:46:47.903Z,40.10
2017-12-11T08:49:15.914Z,40.10
2017-12-11T08:51:43.439Z,38.70
2017-12-11T08:54:10.940Z,42.80
2017-12-11T08:56:38.440Z,41.05
2017-12-11T08:59:05.945Z,40.30
2017-12-11T09:01:33.434Z,39.10
2017-12-11T09:04:00.922Z,44.90
2017-12-11T09:06:29.213Z,36.00
2017-12-11T09:08:57.486Z,45.05
2017-12-11T09:11:25.767Z,43.75
2017-12-11T09:13:54.017Z,49.85
2017-12-11T09:16:21.502Z,45.08
2017-12-11T09:18:49.799Z,48.38
2017-12-11T09:21:17.302Z,49.05
2017-12-11T09:23:44.785Z,44.95
2017-12-11T09:26:12.352Z,45.35
2017-12-11T09:28:39.813Z,48.95
2017-12-11T09:31:08.080Z,49.42
2017-12-11T09:33:36.362Z,49.97
2017-12-11T09:36:04.635Z,46.70
2017-12-11T09:38:32.968Z,46.97
2017-12-11T09:41:00.472Z,54.10
2017-12-11T09:43:28.739Z,50.85
2017-12-11T09:45:57.147Z,53.13
2017-12-11T09:48:24.704Z,50.05
2017-12-11T09:50:52.211Z,50.55
2017-12-11T09:53:19.770Z,54.17
2017-12-11T09:55:47.286Z,65.97
2017-12-11T09:58:14.769Z,52.62
2017-12-11T10:00:42.301Z,58.22
2017-12-11T10:03:09.827Z,48.67
2017-12-11T10:05:38.086Z,52.45
2017-12-11T10:08:06.344Z,59.13
2017-12-11T10:10:33.853Z,57.80
2017-12-11T10:13:01.356Z,57.17
2017-12-11T10:15:28.841Z,53.33
2017-12-11T10:17:56.345Z,55.88
2017-12-11T10:20:23.894Z,55.28
2017-12-11T10:22:51.456Z,56.80
2017-12-11T10:25:18.992Z,55.67
2017-12-11T10:27:47.260Z,63.63
2017-12-11T10:30:15.508Z,63.08
2017-12-11T10:32:43.083Z,56.05
2017-12-11T10:35:10.570Z,59.33
2017-12-11T10:37:38.075Z,61.20
2017-12-11T10:40:05.609Z,65.65
2017-12-11T10:42:33.093Z,62.00
2017-12-11T10:45:00.581Z,60.78
2017-12-11T10:47:28.858Z,69.50
2017-12-11T10:49:57.135Z,59.55
2017-12-11T10:52:25.435Z,56.60
2017-12-11T10:54:52.973Z,64.82
2017-12-11T10:57:21.226Z,60.95
2017-12-11T10:59:48.732Z,58.22
2017-12-11T11:02:16.244Z,61.20
2017-12-11T11:04:43.751Z,65.30
2017-12-11T11:07:11.268Z,63.65
2017-12-11T11:09:38.773Z,66.07
2017-12-11T11:12:06.319Z,68.28
2017-12-11T11:14:33.810Z,63.95
2017-12-11T11:17:01.404Z,72.43
2017-12-11T11:19:28.916Z,67.65
2017-12-11T11:21:56.613Z,60.05
2017-12-11T11:24:24.136Z,59.33
2017-12-11T11:26:51.617Z,58.45
2017-12-11T11:29:19.097Z,61.42
2017-12-11T11:31:46.620Z,61.70
2017-12-11T11:34:14.124Z,60.78
2017-12-11T11:36:42.378Z,56.67
2017-12-11T11:39:09.912Z,57.70
2017-12-11T11:41:37.422Z,53.40
2017-12-11T11:44:05.674Z,51.92
2017-12-11T11:46:33.205Z,55.63
2017-12-11T11:49:00.704Z,59.25
2017-12-11T11:51:28.957Z,54.30
2017-12-11T11:53:56.478Z,55.65
2017-12-11T11:56:23.969Z,59.60
2017-12-11T11:58:51.448Z,57.75
2017-12-11T12:01:18.957Z,56.40
2017-12-11T12:03:46.487Z,72.37
2017-12-11T12:06:13.987Z,67.53
2017-12-11T12:08:41.501Z,64.12
2017-12-11T12:11:08.985Z,55.05
2017-12-11T12:13:36.487Z,54.78
2017-12-11T12:16:04.803Z,54.53
2017-12-11T12:18:32.314Z,48.17
2017-12-11T12:20:59.805Z,48.35
2017-12-11T12:23:28.095Z,51.13
2017-12-11T12:25:55.600Z,40.25
2017-12-11T12:28:23.097Z,47.17
2017-12-11T12:30:51.368Z,51.95
2017-12-11T12:33:19.619Z,51.63
2017-12-11T12:35:47.124Z,40.38
2017-12-11T12:38:14.657Z,44.35
2017-12-11T12:40:42.909Z,52.65
2017-12-11T12:43:10.413Z,47.10
2017-12-11T12:45:37.926Z,43.90
2017-12-11T12:48:05.437Z,39.97
2017-12-11T12:50:32.930Z,36.92
2017-12-11T12:53:00.557Z,30.85
2017-12-11T12:55:28.113Z,40.22
2017-12-11T12:57:55.626Z,32.55
2017-12-11T13:00:23.138Z,38.13
2017-12-11T13:02:50.669Z,31.90
2017-12-11T13:05:18.937Z,33.22
2017-12-11T13:07:47.220Z,31.23
2017-12-11T13:10:15.497Z,37.00
2017-12-11T13:12:43.750Z,41.42
2017-12-11T13:15:11.266Z,32.95
2017-12-11T13:17:38.791Z,27.98
2017-12-11T13:20:06.297Z,30.58
2017-12-11T13:22:33.820Z,30.62
2017-12-11T13:25:01.311Z,34.95
2017-12-11T13:27:28.812Z,29.10
2017-12-11T13:29:57.089Z,28.42
2017-12-11T13:32:25.355Z,32.55
2017-12-11T13:34:53.611Z,34.58
2017-12-11T13:37:21.127Z,31.48
2017-12-11T13:39:48.633Z,38.97
2017-12-11T13:42:16.911Z,28.80
2017-12-11T13:44:44.506Z,32.40
2017-12-11T13:47:12.017Z,31.15
2017-12-11T13:49:39.537Z,33.28
2017-12-11T13:52:07.046Z,35.67
2017-12-11T13:54:35.305Z,33.85
2017-12-11T13:57:02.825Z,32.38
2017-12-11T13:59:30.348Z,36.00
2017-12-11T14:01:58.651Z,35.65
2017-12-11T14:04:26.191Z,35.63
2017-12-11T14:06:54.468Z,33.03
2017-12-11T14:09:22.768Z,34.53
2017-12-11T14:11:50.270Z,33.75
2017-12-11T14:14:17.779Z,33.95
2017-12-11T14:16:45.280Z,34.90
2017-12-11T14:19:12.808Z,33.40
2017-12-11T14:21:40.337Z,34.67
2017-12-11T14:24:08.586Z,37.58
2017-12-11T14:26:36.200Z,39.35
2017-12-11T14:29:03.708Z,32.13
2017-12-11T14:31:31.215Z,43.38
2017-12-11T14:33:58.749Z,38.00
2017-12-11T14:36:27.016Z,30.85
2017-12-11T14:38:55.270Z,31.65
2017-12-11T14:41:22.778Z,43.78
2017-12-11T14:43:50.323Z,36.70
2017-12-11T14:46:17.814Z,39.65
2017-12-11T14:48:45.357Z,33.30
2017-12-11T14:51:12.841Z,33.08
2017-12-11T14:53:40.332Z,35.65
2017-12-11T14:56:07.913Z,37.22
2017-12-11T14:58:36.311Z,27.73
2017-12-11T15:01:03.804Z,21.42
2017-12-11T15:03:31.341Z,25.65
2017-12-11T15:05:58.830Z,33.10
2017-12-11T15:08:26.345Z,25.15
2017-12-11T15:10:53.872Z,26.37
2017-12-11T15:13:22.153Z,25.00
2017-12-11T15:15:50.420Z,35.35
2017-12-11T15:18:18.699Z,25.40
2017-12-11T15:20:46.964Z,25.67
2017-12-11T15:23:15.228Z,22.60
2017-12-11T15:25:42.752Z,20.98
2017-12-11T15:28:10.244Z,24.52
2017-12-11T15:30:37.743Z,23.75
2017-12-11T15:33:05.314Z,35.05
2017-12-11T15:35:32.873Z,28.52
2017-12-11T15:38:00.362Z,36.92
2017-12-11T15:40:27.877Z,36.50
2017-12-11T15:42:55.376Z,29.75
2017-12-11T15:45:22.876Z,31.65
2017-12-11T15:47:51.179Z,51.58
2017-12-11T15:50:18.691Z,51.25
2017-12-11T15:52:46.232Z,24.85
2017-12-11T15:55:13.742Z,34.88
2017-12-11T15:57:41.235Z,25.92
2017-12-11T16:00:08.735Z,24.52
2017-12-11T16:02:37.018Z,30.98
2017-12-11T16:05:04.537Z,26.50
2017-12-11T16:07:32.036Z,41.37
2017-12-11T16:10:00.314Z,42.05
2017-12-11T16:12:28.579Z,86.22
2017-12-11T16:14:56.837Z,56.40
2017-12-11T16:17:24.367Z,38.05
2017-12-11T16:19:51.854Z,28.73
2017-12-11T16:22:19.359Z,24.45
2017-12-11T16:24:46.943Z,21.40
2017-12-11T16:27:14.417Z,24.48
2017-12-11T16:29:41.902Z,24.95
2017-12-11T16:32:10.178Z,27.48
2017-12-11T16:34:37.662Z,48.65
2017-12-11T16:37:05.153Z,43.83
2017-12-11T16:39:32.680Z,49.78
2017-12-11T16:42:00.234Z,41.50
2017-12-11T16:44:27.727Z,40.10
2017-12-11T16:46:55.237Z,38.45
2017-12-11T16:49:23.532Z,46.60
2017-12-11T16:51:51.021Z,41.45
2017-12-11T16:54:18.548Z,37.70
2017-12-11T16:56:46.048Z,39.88
2017-12-11T16:59:13.553Z,40.35
2017-12-11T17:01:41.088Z,43.20
2017-12-11T17:04:08.645Z,58.08
2017-12-11T17:06:36.252Z,86.87
2017-12-11T17:09:03.759Z,48.40
2017-12-11T17:11:31.287Z,66.28
2017-12-11T17:13:59.035Z,96.12
2017-12-11T17:16:26.534Z,70.20
2017-12-11T17:18:54.038Z,114.60
2017-12-11T17:21:21.889Z,54.45
2017-12-11T17:23:50.279Z,56.00
2017-12-11T17:26:17.780Z,63.15
2017-12-11T17:28:45.270Z,42.67
2017-12-11T17:31:13.550Z,41.88
2017-12-11T17:33:41.835Z,29.12
2017-12-11T17:36:10.156Z,50.22
2017-12-11T17:38:37.663Z,24.08
2017-12-11T17:41:05.928Z,30.92
2017-12-11T17:43:33.442Z,12.05
2017-12-11T17:46:00.974Z,2.80
2017-12-11T17:48:28.472Z,3.83
2017-12-11T17:50:55.999Z,6.57
2017-12-11T17:53:23.517Z,5.12
2017-12-11T17:55:51.816Z,6.62
2017-12-11T17:58:19.318Z,2.78
2017-12-11T18:00:46.988Z,2.53
2017-12-11T18:03:14.528Z,6.90
2017-12-11T18:05:42.019Z,3.80
2017-12-11T18:08:09.523Z,4.68
2017-12-11T18:10:37.045Z,10.98
2017-12-11T18:13:05.311Z,1.35
2017-12-11T18:15:32.817Z,3.45
2017-12-11T18:18:00.349Z,2.37
2017-12-11T18:20:28.593Z,2.30
2017-12-11T18:22:56.088Z,5.22
2017-12-11T18:25:24.371Z,2.00
2017-12-11T18:27:51.876Z,2.35
2017-12-11T18:30:19.357Z,3.08
2017-12-11T18:32:46.892Z,2.75
2017-12-11T18:35:14.396Z,4.37
2017-12-11T18:37:41.882Z,2.30
2017-12-11T18:40:09.403Z,6.32
2017-12-11T18:42:37.654Z,6.30
2017-12-11T18:45:05.146Z,11.35
2017-12-11T18:47:32.701Z,3.50
2017-12-11T18:50:00.190Z,4.80
2017-12-11T18:52:27.678Z,3.17
2017-12-11T18:54:55.203Z,4.12
2017-12-11T18:57:22.689Z,9.57
2017-12-11T18:59:50.209Z,13.62
2017-12-11T19:02:17.731Z,5.00
2017-12-11T19:04:46.004Z,3.92
2017-12-11T19:07:14.258Z,6.25
2017-12-11T19:09:41.783Z,5.30
2017-12-11T19:12:09.284Z,5.10
2017-12-11T19:14:38.282Z,5.50
2017-12-11T19:17:05.816Z,6.20
2017-12-11T19:19:33.314Z,2.70
2017-12-11T19:22:01.609Z,1.92
2017-12-11T19:24:29.149Z,10.32
2017-12-11T19:26:57.423Z,81.03
2017-12-11T19:29:25.699Z,22.62
2017-12-11T19:31:53.988Z,6.45
2017-12-11T19:34:22.271Z,4.20
2017-12-11T19:36:49.759Z,5.60
2017-12-11T19:39:17.294Z,3.72
2017-12-11T19:41:44.860Z,8.98
2017-12-11T19:44:12.404Z,8.07
2017-12-11T19:46:39.938Z,5.45
2017-12-11T19:49:08.207Z,3.45
2017-12-11T19:51:35.693Z,3.80
2017-12-11T19:54:03.252Z,1.60
2017-12-11T19:56:30.737Z,1.60
2017-12-11T19:58:58.231Z,1.60
2017-12-11T20:01:25.755Z,4.80
2017-12-11T20:03:53.246Z,2.35
2017-12-11T20:06:20.777Z,2.85
2017-12-11T20:08:48.271Z,2.30
2017-12-11T20:11:15.766Z,5.15
2017-12-11T20:13:43.269Z,3.73
2017-12-11T20:16:10.782Z,5.30
2017-12-11T20:18:38.286Z,2.83
2017-12-11T20:21:05.815Z,1.50
2017-12-11T20:23:33.320Z,5.45
2017-12-11T20:26:00.819Z,4.78
2017-12-11T20:28:28.340Z,6.78
2017-12-11T20:30:55.825Z,6.95
2017-12-11T20:33:23.342Z,5.50
2017-12-11T20:35:50.841Z,3.77
2017-12-11T20:38:18.388Z,3.08
2017-12-11T20:40:46.665Z,3.30
2017-12-11T20:43:14.955Z,5.55
2017-12-11T20:45:42.492Z,2.87
2017-12-11T20:48:10.741Z,3.20
2017-12-11T20:50:38.257Z,6.32
2017-12-11T20:53:05.770Z,5.12
2017-12-11T20:55:33.271Z,3.75
2017-12-11T20:58:00.763Z,6.10
2017-12-11T21:00:28.289Z,1.45
2017-12-11T21:02:55.773Z,4.20
2017-12-11T21:05:23.293Z,4.53
2017-12-11T21:07:50.786Z,2.35
2017-12-11T21:10:18.317Z,3.42
2017-12-11T21:12:45.821Z,3.00
2017-12-11T21:15:13.306Z,3.65
2017-12-11T21:17:41.634Z,3.87
2017-12-11T21:20:09.121Z,2.75
2017-12-11T21:22:36.606Z,4.12
2017-12-11T21:25:05.013Z,3.60
2017-12-11T21:27:32.555Z,2.78
2017-12-11T21:30:00.060Z,2.05
2017-12-11T21:32:27.553Z,2.40
2017-12-11T21:34:55.815Z,4.30
2017-12-11T21:37:23.344Z,3.90
2017-12-11T21:39:50.877Z,2.83
2017-12-11T21:42:18.392Z,7.43
2017-12-11T21:44:45.900Z,1.85
2017-12-11T21:47:13.401Z,1.75
2017-12-11T21:49:40.913Z,1.75
2017-12-11T21:52:08.415Z,3.65
2017-12-11T21:54:35.897Z,4.12
2017-12-11T21:57:04.188Z,1.52
2017-12-11T21:59:31.687Z,2.80
2017-12-11T22:01:59.181Z,3.20
2017-12-11T22:04:27.460Z,0.95
2017-12-11T22:06:55.723Z,1.00
2017-12-11T22:09:23.206Z,1.45
2017-12-11T22:11:51.478Z,3.42
2017-12-11T22:14:19.721Z,1.30
2017-12-11T22:16:47.241Z,2.85
2017-12-11T22:19:14.773Z,1.73
2017-12-11T22:21:43.022Z,4.00
2017-12-11T22:24:10.505Z,5.30
2017-12-11T22:26:38.066Z,3.67
2017-12-11T22:29:05.545Z,3.78
2017-12-11T22:31:33.035Z,4.95
2017-12-11T22:34:00.535Z,2.78
2017-12-11T22:36:28.025Z,5.95
2017-12-11T22:38:55.532Z,6.50
2017-12-11T22:41:23.786Z,3.42
2017-12-11T22:43:52.815Z,3.78
2017-12-11T22:46:21.079Z,2.37
2017-12-11T22:48:49.347Z,1.15
2017-12-11T22:51:16.857Z,1.40
2017-12-11T22:53:44.360Z,1.58
2017-12-11T22:56:11.867Z,1.20
2017-12-11T22:58:39.348Z,4.78
2017-12-11T23:01:06.874Z,5.37
2017-12-11T23:03:34.440Z,3.35
2017-12-11T23:06:01.940Z,6.15
2017-12-11T23:08:29.445Z,4.03
2017-12-11T23:10:56.934Z,3.95
2017-12-11T23:13:24.431Z,1.35
2017-12-11T23:15:51.960Z,2.08
2017-12-11T23:18:19.451Z,1.20
2017-12-11T23:20:47.721Z,1.50
2017-12-11T23:23:15.225Z,1.55
2017-12-11T23:25:42.714Z,3.70
2017-12-11T23:28:10.198Z,1.62
2017-12-11T23:30:38.491Z,2.17
2017-12-11T23:33:06.011Z,1.92
2017-12-11T23:35:33.489Z,0.80
2017-12-11T23:38:01.007Z,3.75
2017-12-11T23:40:28.495Z,1.20
2017-12-11T23:42:55.991Z,1.50
2017-12-11T23:45:23.507Z,2.17
2017-12-11T23:47:51.003Z,0.90
2017-12-11T23:50:19.259Z,1.00
2017-12-11T23:52:47.538Z,1.25
2017-12-11T23:55:15.800Z,0.70
2017-12-11T23:57:43.285Z,3.85
